sensor_id;sensor_type;location;lat;lon;timestamp;temperature;humidity
22192;DHT22;11261;52.456;10.850;2023-06-01T00:02:26;14.90;95.20
22192;DHT22;11261;52.456;10.850;2023-06-01T00:04:54;14.80;96.20
22192;DHT22;11261;52.456;10.850;2023-06-01T00:07:22;14.70;96.10
22192;DHT22;11261;52.456;10.850;2023-06-01T00:09:52;14.80;96.10
22192;DHT22;11261;52.456;10.850;2023-06-01T00:12:21;14.80;95.50
22192;DHT22;11261;52.456;10.850;2023-06-01T00:14:49;14.70;96.80
22192;DHT22;11261;52.456;10.850;2023-06-01T00:17:18;14.60;94.50
22192;DHT22;11261;52.456;10.850;2023-06-01T00:19:46;14.60;97.10
22192;DHT22;11261;52.456;10.850;2023-06-01T00:22:14;14.40;96.40
22192;DHT22;11261;52.456;10.850;2023-06-01T00:24:43;14.20;97.60
22192;DHT22;11261;52.456;10.850;2023-06-01T00:27:13;14.20;96.20
22192;DHT22;11261;52.456;10.850;2023-06-01T00:29:41;14.20;96.70
22192;DHT22;11261;52.456;10.850;2023-06-01T00:32:09;14.20;96.80
22192;DHT22;11261;52.456;10.850;2023-06-01T00:34:37;14.20;98.10
22192;DHT22;11261;52.456;10.850;2023-06-01T00:37:06;14.00;98.30
22192;DHT22;11261;52.456;10.850;2023-06-01T00:39:34;14.00;97.50
22192;DHT22;11261;52.456;10.850;2023-06-01T00:42:03;13.90;98.40
22192;DHT22;11261;52.456;10.850;2023-06-01T00:44:33;13.70;96.80
22192;DHT22;11261;52.456;10.850;2023-06-01T00:47:02;13.40;99.90
22192;DHT22;11261;52.456;10.850;2023-06-01T00:49:30;13.50;98.30
22192;DHT22;11261;52.456;10.850;2023-06-01T00:51:58;13.50;99.80
22192;DHT22;11261;52.456;10.850;2023-06-01T00:54:27;13.20;99.70
22192;DHT22;11261;52.456;10.850;2023-06-01T00:56:56;13.10;99.90
22192;DHT22;11261;52.456;10.850;2023-06-01T00:59:25;13.20;99.90
22192;DHT22;11261;52.456;10.850;2023-06-01T01:01:54;13.30;99.90
22192;DHT22;11261;52.456;10.850;2023-06-01T01:04:22;13.10;99.90
22192;DHT22;11261;52.456;10.850;2023-06-01T01:06:58;13.10;99.90
22192;DHT22;11261;52.456;10.850;2023-06-01T01:09:36;13.00;99.90
22192;DHT22;11261;52.456;10.850;2023-06-01T01:12:09;13.10;99.90
22192;DHT22;11261;52.456;10.850;2023-06-01T01:14:45;13.00;99.90
22192;DHT22;11261;52.456;10.850;2023-06-01T01:17:22;13.00;99.90
22192;DHT22;11261;52.456;10.850;2023-06-01T01:20:01;12.90;99.90
22192;DHT22;11261;52.456;10.850;2023-06-01T01:22:47;12.90;99.90
22192;DHT22;11261;52.456;10.850;2023-06-01T01:25:23;12.90;99.90
22192;DHT22;11261;52.456;10.850;2023-06-01T01:28:06;13.10;99.90
22192;DHT22;11261;52.456;10.850;2023-06-01T01:30:41;13.00;99.90
22192;DHT22;11261;52.456;10.850;2023-06-01T01:33:10;13.00;99.90
22192;DHT22;11261;52.456;10.850;2023-06-01T01:35:39;12.90;99.90
22192;DHT22;11261;52.456;10.850;2023-06-01T01:38:08;13.10;99.90
22192;DHT22;11261;52.456;10.850;2023-06-01T01:40:36;12.80;99.90
22192;DHT22;11261;52.456;10.850;2023-06-01T01:43:05;12.60;99.90
22192;DHT22;11261;52.456;10.850;2023-06-01T01:45:39;12.70;99.90
22192;DHT22;11261;52.456;10.850;2023-06-01T01:48:11;12.70;99.90
22192;DHT22;11261;52.456;10.850;2023-06-01T01:50:45;12.70;99.90
22192;DHT22;11261;52.456;10.850;2023-06-01T01:53:19;12.70;99.90
22192;DHT22;11261;52.456;10.850;2023-06-01T01:55:49;12.70;99.90
22192;DHT22;11261;52.456;10.850;2023-06-01T01:58:18;12.80;99.90
22192;DHT22;11261;52.456;10.850;2023-06-01T02:00:48;12.80;99.90
22192;DHT22;11261;52.456;10.850;2023-06-01T02:03:17;12.70;99.90
22192;DHT22;11261;52.456;10.850;2023-06-01T02:05:46;12.70;99.90
22192;DHT22;11261;52.456;10.850;2023-06-01T02:08:14;12.60;99.90
22192;DHT22;11261;52.456;10.850;2023-06-01T02:10:43;12.80;99.90
22192;DHT22;11261;52.456;10.850;2023-06-01T02:13:11;12.80;99.90
22192;DHT22;11261;52.456;10.850;2023-06-01T02:15:40;12.70;99.90
22192;DHT22;11261;52.456;10.850;2023-06-01T02:18:09;12.80;99.90
22192;DHT22;11261;52.456;10.850;2023-06-01T02:20:38;12.80;99.90
22192;DHT22;11261;52.456;10.850;2023-06-01T02:23:06;12.70;99.90
22192;DHT22;11261;52.456;10.850;2023-06-01T02:25:34;12.70;99.90
22192;DHT22;11261;52.456;10.850;2023-06-01T02:28:02;12.60;99.90
22192;DHT22;11261;52.456;10.850;2023-06-01T02:30:31;12.70;99.90
22192;DHT22;11261;52.456;10.850;2023-06-01T02:32:59;12.70;99.90
22192;DHT22;11261;52.456;10.850;2023-06-01T02:35:29;12.80;99.90
22192;DHT22;11261;52.456;10.850;2023-06-01T02:37:58;12.70;99.90
22192;DHT22;11261;52.456;10.850;2023-06-01T02:40:26;12.60;99.90
22192;DHT22;11261;52.456;10.850;2023-06-01T02:42:55;12.60;99.90
22192;DHT22;11261;52.456;10.850;2023-06-01T02:45:23;12.60;99.90
22192;DHT22;11261;52.456;10.850;2023-06-01T02:47:52;12.60;99.90
22192;DHT22;11261;52.456;10.850;2023-06-01T02:50:20;12.70;99.90
22192;DHT22;11261;52.456;10.850;2023-06-01T02:52:50;12.80;99.90
22192;DHT22;11261;52.456;10.850;2023-06-01T02:55:18;12.70;99.90
22192;DHT22;11261;52.456;10.850;2023-06-01T02:57:47;12.80;99.90
22192;DHT22;11261;52.456;10.850;2023-06-01T03:00:15;12.60;99.90
22192;DHT22;11261;52.456;10.850;2023-06-01T03:02:45;12.70;99.90
22192;DHT22;11261;52.456;10.850;2023-06-01T03:05:14;12.70;99.90
22192;DHT22;11261;52.456;10.850;2023-06-01T03:07:44;12.70;99.90
22192;DHT22;11261;52.456;10.850;2023-06-01T03:10:14;12.50;99.90
22192;DHT22;11261;52.456;10.850;2023-06-01T03:12:42;12.60;99.90
22192;DHT22;11261;52.456;10.850;2023-06-01T03:15:11;12.70;99.90
22192;DHT22;11261;52.456;10.850;2023-06-01T03:17:39;12.60;99.90
22192;DHT22;11261;52.456;10.850;2023-06-01T03:20:08;12.60;99.90
22192;DHT22;11261;52.456;10.850;2023-06-01T03:22:42;12.70;99.90
22192;DHT22;11261;52.456;10.850;2023-06-01T03:25:10;12.50;99.90
22192;DHT22;11261;52.456;10.850;2023-06-01T03:27:40;12.80;99.90
22192;DHT22;11261;52.456;10.850;2023-06-01T03:30:10;12.70;99.90
22192;DHT22;11261;52.456;10.850;2023-06-01T03:32:40;12.70;99.90
22192;DHT22;11261;52.456;10.850;2023-06-01T03:35:10;12.80;99.90
22192;DHT22;11261;52.456;10.850;2023-06-01T03:37:40;12.90;99.90
22192;DHT22;11261;52.456;10.850;2023-06-01T03:40:09;12.80;99.90
22192;DHT22;11261;52.456;10.850;2023-06-01T03:42:40;12.60;99.90
22192;DHT22;11261;52.456;10.850;2023-06-01T03:45:10;12.60;99.90
22192;DHT22;11261;52.456;10.850;2023-06-01T03:47:39;12.70;99.90
22192;DHT22;11261;52.456;10.850;2023-06-01T03:50:08;12.70;99.90
22192;DHT22;11261;52.456;10.850;2023-06-01T03:52:38;12.70;99.90
22192;DHT22;11261;52.456;10.850;2023-06-01T03:55:07;12.70;99.90
22192;DHT22;11261;52.456;10.850;2023-06-01T03:57:38;12.70;99.90
22192;DHT22;11261;52.456;10.850;2023-06-01T04:00:08;12.80;99.90
22192;DHT22;11261;52.456;10.850;2023-06-01T04:02:47;12.80;99.90
22192;DHT22;11261;52.456;10.850;2023-06-01T04:05:20;12.70;99.90
22192;DHT22;11261;52.456;10.850;2023-06-01T04:07:49;12.80;99.90
22192;DHT22;11261;52.456;10.850;2023-06-01T04:10:18;12.80;99.90
22192;DHT22;11261;52.456;10.850;2023-06-01T04:12:48;12.80;99.90
22192;DHT22;11261;52.456;10.850;2023-06-01T04:15:19;12.80;99.90
22192;DHT22;11261;52.456;10.850;2023-06-01T04:17:48;12.80;99.90
22192;DHT22;11261;52.456;10.850;2023-06-01T04:20:17;12.80;99.90
22192;DHT22;11261;52.456;10.850;2023-06-01T04:22:46;12.80;99.90
22192;DHT22;11261;52.456;10.850;2023-06-01T04:25:15;12.80;99.90
22192;DHT22;11261;52.456;10.850;2023-06-01T04:27:49;12.70;99.90
22192;DHT22;11261;52.456;10.850;2023-06-01T04:30:20;12.60;99.90
22192;DHT22;11261;52.456;10.850;2023-06-01T04:32:49;12.60;99.90
22192;DHT22;11261;52.456;10.850;2023-06-01T04:35:17;12.70;99.90
22192;DHT22;11261;52.456;10.850;2023-06-01T04:37:46;12.80;99.90
22192;DHT22;11261;52.456;10.850;2023-06-01T04:40:15;12.80;99.90
22192;DHT22;11261;52.456;10.850;2023-06-01T04:42:44;13.00;99.90
22192;DHT22;11261;52.456;10.850;2023-06-01T04:45:16;13.10;99.90
22192;DHT22;11261;52.456;10.850;2023-06-01T04:47:47;13.00;99.90
22192;DHT22;11261;52.456;10.850;2023-06-01T04:50:16;12.80;99.90
22192;DHT22;11261;52.456;10.850;2023-06-01T04:52:45;12.70;99.90
22192;DHT22;11261;52.456;10.850;2023-06-01T04:55:15;12.80;99.90
22192;DHT22;11261;52.456;10.850;2023-06-01T04:57:43;12.80;99.90
22192;DHT22;11261;52.456;10.850;2023-06-01T05:00:13;12.80;99.90
22192;DHT22;11261;52.456;10.850;2023-06-01T05:02:47;12.90;99.90
22192;DHT22;11261;52.456;10.850;2023-06-01T05:05:16;12.90;99.90
22192;DHT22;11261;52.456;10.850;2023-06-01T05:07:45;13.10;99.90
22192;DHT22;11261;52.456;10.850;2023-06-01T05:10:13;12.80;99.90
22192;DHT22;11261;52.456;10.850;2023-06-01T05:12:42;12.80;99.90
22192;DHT22;11261;52.456;10.850;2023-06-01T05:15:11;12.90;99.90
22192;DHT22;11261;52.456;10.850;2023-06-01T05:17:40;13.00;99.90
22192;DHT22;11261;52.456;10.850;2023-06-01T05:20:12;12.70;99.90
22192;DHT22;11261;52.456;10.850;2023-06-01T05:22:40;13.00;99.90
22192;DHT22;11261;52.456;10.850;2023-06-01T05:25:09;12.90;99.90
22192;DHT22;11261;52.456;10.850;2023-06-01T05:27:38;12.90;99.90
22192;DHT22;11261;52.456;10.850;2023-06-01T05:30:07;12.90;99.90
22192;DHT22;11261;52.456;10.850;2023-06-01T05:32:36;12.80;99.90
22192;DHT22;11261;52.456;10.850;2023-06-01T05:35:05;12.90;99.90
22192;DHT22;11261;52.456;10.850;2023-06-01T05:37:35;13.00;99.90
22192;DHT22;11261;52.456;10.850;2023-06-01T05:40:04;13.00;99.90
22192;DHT22;11261;52.456;10.850;2023-06-01T05:42:35;13.00;99.90
22192;DHT22;11261;52.456;10.850;2023-06-01T05:45:04;12.80;99.90
22192;DHT22;11261;52.456;10.850;2023-06-01T05:47:33;12.90;99.90
22192;DHT22;11261;52.456;10.850;2023-06-01T05:50:02;12.90;99.90
22192;DHT22;11261;52.456;10.850;2023-06-01T05:52:31;13.00;99.90
22192;DHT22;11261;52.456;10.850;2023-06-01T05:55:01;13.20;99.90
22192;DHT22;11261;52.456;10.850;2023-06-01T05:57:29;13.30;99.90
22192;DHT22;11261;52.456;10.850;2023-06-01T05:59:58;13.40;99.90
22192;DHT22;11261;52.456;10.850;2023-06-01T06:02:26;13.50;99.90
22192;DHT22;11261;52.456;10.850;2023-06-01T06:04:54;13.40;99.90
22192;DHT22;11261;52.456;10.850;2023-06-01T06:07:23;13.30;99.90
22192;DHT22;11261;52.456;10.850;2023-06-01T06:09:51;13.20;99.90
22192;DHT22;11261;52.456;10.850;2023-06-01T06:12:21;13.20;99.90
22192;DHT22;11261;52.456;10.850;2023-06-01T06:14:49;13.40;99.90
22192;DHT22;11261;52.456;10.850;2023-06-01T06:17:17;13.40;99.90
22192;DHT22;11261;52.456;10.850;2023-06-01T06:19:46;13.50;99.90
22192;DHT22;11261;52.456;10.850;2023-06-01T06:22:15;13.50;99.90
22192;DHT22;11261;52.456;10.850;2023-06-01T06:24:44;13.50;99.90
22192;DHT22;11261;52.456;10.850;2023-06-01T06:27:13;13.60;99.90
22192;DHT22;11261;52.456;10.850;2023-06-01T06:29:42;13.80;99.90
22192;DHT22;11261;52.456;10.850;2023-06-01T06:32:10;14.00;99.90
22192;DHT22;11261;52.456;10.850;2023-06-01T06:34:39;14.10;99.90
22192;DHT22;11261;52.456;10.850;2023-06-01T06:37:07;13.60;99.90
22192;DHT22;11261;52.456;10.850;2023-06-01T06:39:38;13.70;99.90
22192;DHT22;11261;52.456;10.850;2023-06-01T06:42:06;13.70;99.90
22192;DHT22;11261;52.456;10.850;2023-06-01T06:44:34;13.50;99.90
22192;DHT22;11261;52.456;10.850;2023-06-01T06:47:05;13.70;99.90
22192;DHT22;11261;52.456;10.850;2023-06-01T06:49:33;13.90;99.90
22192;DHT22;11261;52.456;10.850;2023-06-01T06:52:02;13.70;99.90
22192;DHT22;11261;52.456;10.850;2023-06-01T06:54:30;13.80;99.90
22192;DHT22;11261;52.456;10.850;2023-06-01T06:56:58;13.90;99.90
22192;DHT22;11261;52.456;10.850;2023-06-01T06:59:27;14.00;99.90
22192;DHT22;11261;52.456;10.850;2023-06-01T07:01:55;14.00;99.90
22192;DHT22;11261;52.456;10.850;2023-06-01T07:04:25;13.90;99.90
22192;DHT22;11261;52.456;10.850;2023-06-01T07:06:53;14.20;99.90
22192;DHT22;11261;52.456;10.850;2023-06-01T07:09:21;14.20;99.90
22192;DHT22;11261;52.456;10.850;2023-06-01T07:11:50;14.30;99.90
22192;DHT22;11261;52.456;10.850;2023-06-01T07:14:18;14.30;99.90
22192;DHT22;11261;52.456;10.850;2023-06-01T07:16:47;14.30;99.90
22192;DHT22;11261;52.456;10.850;2023-06-01T07:19:15;14.60;99.90
22192;DHT22;11261;52.456;10.850;2023-06-01T07:21:45;14.70;99.90
22192;DHT22;11261;52.456;10.850;2023-06-01T07:24:14;14.90;99.90
22192;DHT22;11261;52.456;10.850;2023-06-01T07:26:42;15.10;99.90
22192;DHT22;11261;52.456;10.850;2023-06-01T07:29:10;15.20;99.90
22192;DHT22;11261;52.456;10.850;2023-06-01T07:31:40;15.50;99.90
22192;DHT22;11261;52.456;10.850;2023-06-01T07:34:09;15.90;99.90
22192;DHT22;11261;52.456;10.850;2023-06-01T07:36:37;16.40;99.90
22192;DHT22;11261;52.456;10.850;2023-06-01T07:39:07;16.70;99.90
22192;DHT22;11261;52.456;10.850;2023-06-01T07:41:36;16.50;99.90
22192;DHT22;11261;52.456;10.850;2023-06-01T07:44:06;16.50;99.90
22192;DHT22;11261;52.456;10.850;2023-06-01T07:46:35;16.20;99.90
22192;DHT22;11261;52.456;10.850;2023-06-01T07:49:04;15.80;99.90
22192;DHT22;11261;52.456;10.850;2023-06-01T07:51:32;15.80;99.90
22192;DHT22;11261;52.456;10.850;2023-06-01T07:54:00;15.80;99.90
22192;DHT22;11261;52.456;10.850;2023-06-01T07:56:30;15.70;99.90
22192;DHT22;11261;52.456;10.850;2023-06-01T07:58:58;15.70;99.90
22192;DHT22;11261;52.456;10.850;2023-06-01T08:01:26;15.90;99.90
22192;DHT22;11261;52.456;10.850;2023-06-01T08:03:54;15.60;99.90
22192;DHT22;11261;52.456;10.850;2023-06-01T08:06:24;15.70;99.90
22192;DHT22;11261;52.456;10.850;2023-06-01T08:08:54;15.70;99.90
22192;DHT22;11261;52.456;10.850;2023-06-01T08:11:22;15.60;99.90
22192;DHT22;11261;52.456;10.850;2023-06-01T08:13:51;15.50;99.90
22192;DHT22;11261;52.456;10.850;2023-06-01T08:16:20;15.70;99.90
22192;DHT22;11261;52.456;10.850;2023-06-01T08:18:48;16.00;99.90
22192;DHT22;11261;52.456;10.850;2023-06-01T08:21:17;16.00;99.90
22192;DHT22;11261;52.456;10.850;2023-06-01T08:23:46;16.20;99.90
22192;DHT22;11261;52.456;10.850;2023-06-01T08:26:15;16.40;99.90
22192;DHT22;11261;52.456;10.850;2023-06-01T08:28:43;16.40;99.90
22192;DHT22;11261;52.456;10.850;2023-06-01T08:31:20;16.30;99.90
22192;DHT22;11261;52.456;10.850;2023-06-01T08:33:50;16.50;99.90
22192;DHT22;11261;52.456;10.850;2023-06-01T08:36:19;16.30;99.90
22192;DHT22;11261;52.456;10.850;2023-06-01T08:38:49;16.30;99.90
22192;DHT22;11261;52.456;10.850;2023-06-01T08:41:23;16.20;99.90
22192;DHT22;11261;52.456;10.850;2023-06-01T08:43:57;16.60;99.90
22192;DHT22;11261;52.456;10.850;2023-06-01T08:46:28;17.00;99.90
22192;DHT22;11261;52.456;10.850;2023-06-01T08:48:59;17.30;99.90
22192;DHT22;11261;52.456;10.850;2023-06-01T08:51:28;17.40;99.90
22192;DHT22;11261;52.456;10.850;2023-06-01T08:54:00;17.50;99.90
22192;DHT22;11261;52.456;10.850;2023-06-01T08:56:32;17.40;99.90
22192;DHT22;11261;52.456;10.850;2023-06-01T08:59:00;17.70;99.90
22192;DHT22;11261;52.456;10.850;2023-06-01T09:01:30;17.80;99.90
22192;DHT22;11261;52.456;10.850;2023-06-01T09:03:59;18.00;99.90
22192;DHT22;11261;52.456;10.850;2023-06-01T09:06:28;17.90;99.90
22192;DHT22;11261;52.456;10.850;2023-06-01T09:08:56;17.80;99.90
22192;DHT22;11261;52.456;10.850;2023-06-01T09:11:26;18.00;99.90
22192;DHT22;11261;52.456;10.850;2023-06-01T09:13:56;18.50;99.90
22192;DHT22;11261;52.456;10.850;2023-06-01T09:16:35;18.10;99.90
22192;DHT22;11261;52.456;10.850;2023-06-01T09:19:03;18.40;99.90
22192;DHT22;11261;52.456;10.850;2023-06-01T09:21:32;19.10;98.70
22192;DHT22;11261;52.456;10.850;2023-06-01T09:24:18;19.50;98.50
22192;DHT22;11261;52.456;10.850;2023-06-01T09:26:48;19.80;97.50
22192;DHT22;11261;52.456;10.850;2023-06-01T09:29:17;19.80;97.30
22192;DHT22;11261;52.456;10.850;2023-06-01T09:31:47;20.00;96.90
22192;DHT22;11261;52.456;10.850;2023-06-01T09:34:17;20.10;96.90
22192;DHT22;11261;52.456;10.850;2023-06-01T09:36:46;20.70;96.20
22192;DHT22;11261;52.456;10.850;2023-06-01T09:39:17;20.50;95.80
22192;DHT22;11261;52.456;10.850;2023-06-01T09:41:50;20.90;95.90
22192;DHT22;11261;52.456;10.850;2023-06-01T09:44:24;20.50;95.40
22192;DHT22;11261;52.456;10.850;2023-06-01T09:46:55;20.60;96.10
22192;DHT22;11261;52.456;10.850;2023-06-01T09:49:25;20.80;94.50
22192;DHT22;11261;52.456;10.850;2023-06-01T09:52:08;21.40;93.90
22192;DHT22;11261;52.456;10.850;2023-06-01T09:54:37;21.30;94.30
22192;DHT22;11261;52.456;10.850;2023-06-01T09:57:07;21.60;94.30
22192;DHT22;11261;52.456;10.850;2023-06-01T09:59:40;22.00;93.60
22192;DHT22;11261;52.456;10.850;2023-06-01T10:02:12;21.70;93.80
22192;DHT22;11261;52.456;10.850;2023-06-01T10:04:44;21.30;93.60
22192;DHT22;11261;52.456;10.850;2023-06-01T10:07:13;21.90;93.00
22192;DHT22;11261;52.456;10.850;2023-06-01T10:09:44;22.00;92.60
22192;DHT22;11261;52.456;10.850;2023-06-01T10:12:14;22.00;93.40
22192;DHT22;11261;52.456;10.850;2023-06-01T10:14:42;21.70;92.30
22192;DHT22;11261;52.456;10.850;2023-06-01T10:17:13;21.90;92.80
22192;DHT22;11261;52.456;10.850;2023-06-01T10:19:43;22.10;91.80
22192;DHT22;11261;52.456;10.850;2023-06-01T10:22:12;22.20;91.40
22192;DHT22;11261;52.456;10.850;2023-06-01T10:24:41;22.10;92.00
22192;DHT22;11261;52.456;10.850;2023-06-01T10:27:16;22.30;92.00
22192;DHT22;11261;52.456;10.850;2023-06-01T10:29:46;22.40;91.30
22192;DHT22;11261;52.456;10.850;2023-06-01T10:32:41;21.90;91.40
22192;DHT22;11261;52.456;10.850;2023-06-01T10:38:32;23.00;90.70
22192;DHT22;11261;52.456;10.850;2023-06-01T10:41:26;22.90;89.60
22192;DHT22;11261;52.456;10.850;2023-06-01T10:43:55;22.90;90.30
22192;DHT22;11261;52.456;10.850;2023-06-01T10:46:42;23.10;90.50
22192;DHT22;11261;52.456;10.850;2023-06-01T10:49:13;23.00;87.30
22192;DHT22;11261;52.456;10.850;2023-06-01T10:51:41;23.10;90.40
22192;DHT22;11261;52.456;10.850;2023-06-01T10:54:30;23.20;89.70
22192;DHT22;11261;52.456;10.850;2023-06-01T10:57:20;23.80;86.80
22192;DHT22;11261;52.456;10.850;2023-06-01T11:00:19;23.30;88.70
22192;DHT22;11261;52.456;10.850;2023-06-01T11:02:52;23.10;89.00
22192;DHT22;11261;52.456;10.850;2023-06-01T11:05:39;22.90;89.30
22192;DHT22;11261;52.456;10.850;2023-06-01T11:08:08;23.50;90.00
22192;DHT22;11261;52.456;10.850;2023-06-01T11:10:56;24.00;87.40
22192;DHT22;11261;52.456;10.850;2023-06-01T11:13:28;23.90;88.60
22192;DHT22;11261;52.456;10.850;2023-06-01T11:16:29;23.90;87.80
22192;DHT22;11261;52.456;10.850;2023-06-01T11:19:01;23.40;87.00
22192;DHT22;11261;52.456;10.850;2023-06-01T11:21:33;22.80;86.70
22192;DHT22;11261;52.456;10.850;2023-06-01T11:24:10;23.40;88.40
22192;DHT22;11261;52.456;10.850;2023-06-01T11:26:41;23.70;85.10
22192;DHT22;11261;52.456;10.850;2023-06-01T11:29:14;24.20;84.10
22192;DHT22;11261;52.456;10.850;2023-06-01T11:31:45;23.90;83.60
22192;DHT22;11261;52.456;10.850;2023-06-01T11:34:15;23.50;86.00
22192;DHT22;11261;52.456;10.850;2023-06-01T11:36:47;24.20;85.70
22192;DHT22;11261;52.456;10.850;2023-06-01T11:39:17;24.60;83.30
22192;DHT22;11261;52.456;10.850;2023-06-01T11:41:49;24.40;83.40
22192;DHT22;11261;52.456;10.850;2023-06-01T11:44:18;25.30;83.20
22192;DHT22;11261;52.456;10.850;2023-06-01T11:46:56;24.40;84.60
22192;DHT22;11261;52.456;10.850;2023-06-01T11:49:26;24.10;85.10
22192;DHT22;11261;52.456;10.850;2023-06-01T11:51:55;24.10;83.00
22192;DHT22;11261;52.456;10.850;2023-06-01T11:54:25;23.70;84.50
22192;DHT22;11261;52.456;10.850;2023-06-01T11:56:56;23.60;84.60
22192;DHT22;11261;52.456;10.850;2023-06-01T11:59:25;23.70;86.20
22192;DHT22;11261;52.456;10.850;2023-06-01T12:01:55;23.60;84.60
22192;DHT22;11261;52.456;10.850;2023-06-01T12:04:24;23.70;84.40
22192;DHT22;11261;52.456;10.850;2023-06-01T12:07:05;23.70;85.40
22192;DHT22;11261;52.456;10.850;2023-06-01T12:09:34;23.90;84.80
22192;DHT22;11261;52.456;10.850;2023-06-01T12:12:04;23.80;84.50
22192;DHT22;11261;52.456;10.850;2023-06-01T12:14:35;23.80;84.70
22192;DHT22;11261;52.456;10.850;2023-06-01T12:17:05;24.00;85.20
22192;DHT22;11261;52.456;10.850;2023-06-01T12:19:44;23.70;85.30
22192;DHT22;11261;52.456;10.850;2023-06-01T12:22:15;24.20;84.80
22192;DHT22;11261;52.456;10.850;2023-06-01T12:24:44;23.70;81.90
22192;DHT22;11261;52.456;10.850;2023-06-01T12:27:13;23.60;83.30
22192;DHT22;11261;52.456;10.850;2023-06-01T12:29:43;23.80;84.20
22192;DHT22;11261;52.456;10.850;2023-06-01T12:32:13;23.50;83.90
22192;DHT22;11261;52.456;10.850;2023-06-01T12:34:42;23.50;83.80
22192;DHT22;11261;52.456;10.850;2023-06-01T12:37:17;23.60;83.40
22192;DHT22;11261;52.456;10.850;2023-06-01T12:39:51;23.80;84.10
22192;DHT22;11261;52.456;10.850;2023-06-01T12:42:33;24.00;82.60
22192;DHT22;11261;52.456;10.850;2023-06-01T12:45:03;23.90;83.30
22192;DHT22;11261;52.456;10.850;2023-06-01T12:47:36;24.10;83.10
22192;DHT22;11261;52.456;10.850;2023-06-01T12:50:06;24.00;81.90
22192;DHT22;11261;52.456;10.850;2023-06-01T12:52:37;24.40;80.80
22192;DHT22;11261;52.456;10.850;2023-06-01T12:55:06;24.00;81.70
22192;DHT22;11261;52.456;10.850;2023-06-01T12:57:36;24.60;80.70
22192;DHT22;11261;52.456;10.850;2023-06-01T13:00:06;24.20;80.40
22192;DHT22;11261;52.456;10.850;2023-06-01T13:02:34;24.10;81.50
22192;DHT22;11261;52.456;10.850;2023-06-01T13:05:04;24.10;79.90
22192;DHT22;11261;52.456;10.850;2023-06-01T13:07:33;24.60;82.30
22192;DHT22;11261;52.456;10.850;2023-06-01T13:10:04;23.80;81.80
22192;DHT22;11261;52.456;10.850;2023-06-01T13:12:33;24.80;79.40
22192;DHT22;11261;52.456;10.850;2023-06-01T13:15:01;24.00;80.30
22192;DHT22;11261;52.456;10.850;2023-06-01T13:17:30;23.50;81.60
22192;DHT22;11261;52.456;10.850;2023-06-01T13:19:59;24.00;81.00
22192;DHT22;11261;52.456;10.850;2023-06-01T13:22:27;24.00;80.90
22192;DHT22;11261;52.456;10.850;2023-06-01T13:24:55;24.10;79.70
22192;DHT22;11261;52.456;10.850;2023-06-01T13:27:33;24.00;80.90
22192;DHT22;11261;52.456;10.850;2023-06-01T13:30:01;24.10;80.90
22192;DHT22;11261;52.456;10.850;2023-06-01T13:32:31;24.20;80.80
22192;DHT22;11261;52.456;10.850;2023-06-01T13:34:59;24.40;80.50
22192;DHT22;11261;52.456;10.850;2023-06-01T13:37:28;24.30;81.40
22192;DHT22;11261;52.456;10.850;2023-06-01T13:39:56;23.90;82.80
22192;DHT22;11261;52.456;10.850;2023-06-01T13:42:24;24.10;80.60
22192;DHT22;11261;52.456;10.850;2023-06-01T13:44:54;23.70;81.10
22192;DHT22;11261;52.456;10.850;2023-06-01T13:47:22;23.90;80.50
22192;DHT22;11261;52.456;10.850;2023-06-01T13:49:51;24.40;81.60
22192;DHT22;11261;52.456;10.850;2023-06-01T13:52:19;24.50;80.60
22192;DHT22;11261;52.456;10.850;2023-06-01T13:54:48;24.50;81.10
22192;DHT22;11261;52.456;10.850;2023-06-01T13:57:16;24.50;79.00
22192;DHT22;11261;52.456;10.850;2023-06-01T13:59:44;24.40;80.50
22192;DHT22;11261;52.456;10.850;2023-06-01T14:02:14;23.90;80.20
22192;DHT22;11261;52.456;10.850;2023-06-01T14:04:42;24.00;82.00
22192;DHT22;11261;52.456;10.850;2023-06-01T14:07:17;24.10;81.30
22192;DHT22;11261;52.456;10.850;2023-06-01T14:09:45;24.50;80.30
22192;DHT22;11261;52.456;10.850;2023-06-01T14:12:13;23.50;81.40
22192;DHT22;11261;52.456;10.850;2023-06-01T14:14:41;23.60;81.30
22192;DHT22;11261;52.456;10.850;2023-06-01T14:17:09;24.00;80.30
22192;DHT22;11261;52.456;10.850;2023-06-01T14:19:39;24.30;79.30
22192;DHT22;11261;52.456;10.850;2023-06-01T14:22:08;24.20;79.80
22192;DHT22;11261;52.456;10.850;2023-06-01T14:24:36;24.00;79.90
22192;DHT22;11261;52.456;10.850;2023-06-01T14:27:05;23.80;81.30
22192;DHT22;11261;52.456;10.850;2023-06-01T14:29:34;23.80;79.90
22192;DHT22;11261;52.456;10.850;2023-06-01T14:32:02;23.70;79.10
22192;DHT22;11261;52.456;10.850;2023-06-01T14:34:30;23.50;80.50
22192;DHT22;11261;52.456;10.850;2023-06-01T14:37:00;23.70;79.70
22192;DHT22;11261;52.456;10.850;2023-06-01T14:39:31;23.80;80.40
22192;DHT22;11261;52.456;10.850;2023-06-01T14:41:59;23.70;80.70
22192;DHT22;11261;52.456;10.850;2023-06-01T14:44:28;23.40;81.20
22192;DHT22;11261;52.456;10.850;2023-06-01T14:46:56;23.00;82.80
22192;DHT22;11261;52.456;10.850;2023-06-01T14:49:26;22.80;81.70
22192;DHT22;11261;52.456;10.850;2023-06-01T14:52:13;23.40;81.80
22192;DHT22;11261;52.456;10.850;2023-06-01T14:54:41;23.20;82.60
22192;DHT22;11261;52.456;10.850;2023-06-01T14:57:09;22.80;82.90
22192;DHT22;11261;52.456;10.850;2023-06-01T14:59:38;22.80;83.20
22192;DHT22;11261;52.456;10.850;2023-06-01T15:02:17;22.50;82.90
22192;DHT22;11261;52.456;10.850;2023-06-01T15:04:45;22.90;83.30
22192;DHT22;11261;52.456;10.850;2023-06-01T15:07:16;22.90;82.20
22192;DHT22;11261;52.456;10.850;2023-06-01T15:09:44;22.90;83.00
22192;DHT22;11261;52.456;10.850;2023-06-01T15:12:13;23.00;83.40
22192;DHT22;11261;52.456;10.850;2023-06-01T15:14:41;23.10;81.90
22192;DHT22;11261;52.456;10.850;2023-06-01T15:17:09;22.70;83.10
22192;DHT22;11261;52.456;10.850;2023-06-01T15:19:38;23.10;81.80
22192;DHT22;11261;52.456;10.850;2023-06-01T15:22:07;22.90;82.10
22192;DHT22;11261;52.456;10.850;2023-06-01T15:24:36;22.90;81.80
22192;DHT22;11261;52.456;10.850;2023-06-01T15:27:06;22.30;83.00
22192;DHT22;11261;52.456;10.850;2023-06-01T15:29:35;22.10;84.30
22192;DHT22;11261;52.456;10.850;2023-06-01T15:32:04;22.40;83.40
22192;DHT22;11261;52.456;10.850;2023-06-01T15:34:32;22.40;83.10
22192;DHT22;11261;52.456;10.850;2023-06-01T15:37:01;22.50;82.50
22192;DHT22;11261;52.456;10.850;2023-06-01T15:39:30;22.40;82.50